Airfield :
LOGIN :

Register | Disclaimer

   EN    FR    IT 

 










Legend :    VFR   Marginal VFR   IFR   Intensive IFR   Very Intensive IFR
Visi :
Ceiling :
>= 8 km
>= 3000ft
5 to 8 km
1000 to 3000 ft
1500m to 5 km
500 to 1000 ft
800 to 1500m
200 to 500 ft
< 800m
< 200 ft
Symbols :   Thunderstorms  Fog  Heavy snow  Heavy precipitations  Wind > 20 kt
SIGMETs :     Misc.  Thunderstorms  Icing  Turbulence  Mountain Waves  Volcanic Ashes






- Airport Elevation : 157 ft
- IATA code : LIL


LFQQ - Lille Lesquin

CURRENT METAR :
  • 011430Z AUTO 04007KT 9999 FEW016 07/04 Q1026 NOSIG

EXPIRED METARs :
  • 011400Z AUTO 02008KT 9999 SCT016 BKN021 BKN027 07/04 Q1026 NOSIG
  • 011330Z AUTO 02008KT 9999 BKN014 OVC023 07/04 Q1027 BECMG BKN020
  • 011300Z AUTO 02007KT 340V050 9000 SCT015 OVC024 07/04 Q1027 NOSIG
  • 011230Z AUTO 02007KT 9999 0250 R26/P5000 R08/0275N // BKN017 BKN024 07/04 Q1027
  • 011200Z AUTO 04009KT 9999 BKN019 BKN026 07/04 Q1027 NOSIG

TAF TAF LFQQ
Valid from the 01 at 12:00 until the 02 at 18:00 UTC


011100Z 0112/0218 03005KT 9999 BKN020
BECMG 0123/0202 3000 BR BKN007 BKN020
TEMPO 0206/0218 OVC002
ATIS : +33 3 20 16 19 54



MET'MAP, your aeronautical weather chart ! - Copyright ORBIFLY December 2007 - Disclaimer

ORBIFLY MET'MAP TEAM :

Programming & Development : Alexandra Zaïnal
Original concept : Baudouin d'Aumeries
Technical & hardware support : Manuel Goepfert
Assistance : Marc-Olivier Méhu




SOURCES & CREDITS :

   NOAA